createdAt,value
2023-04-27T00:00:44.522Z,62.44
2023-04-27T00:03:11.316Z,62.57
2023-04-27T00:05:39.390Z,62.41
2023-04-27T00:08:06.583Z,61.14
2023-04-27T00:10:33.433Z,62.46
2023-04-27T00:13:00.740Z,62.36
2023-04-27T00:15:28.197Z,62.32
2023-04-27T00:17:55.062Z,62.37
2023-04-27T00:20:21.796Z,62.54
2023-04-27T00:22:48.399Z,62.68
2023-04-27T00:25:15.070Z,62.98
2023-04-27T00:27:41.820Z,63.11
2023-04-27T00:30:09.812Z,63.07
2023-04-27T00:32:36.575Z,63.28
2023-04-27T00:35:03.421Z,63.49
2023-04-27T00:37:29.971Z,63.46
2023-04-27T00:39:56.883Z,63.31
2023-04-27T00:42:23.572Z,63.15
2023-04-27T00:44:51.158Z,63.22
2023-04-27T00:47:17.974Z,63.21
2023-04-27T00:49:45.046Z,63.28
2023-04-27T00:52:11.822Z,63.22
2023-04-27T00:54:38.848Z,63.14
2023-04-27T00:57:05.589Z,63.09
2023-04-27T00:59:32.291Z,63.23
2023-04-27T01:01:59.739Z,63.25
2023-04-27T01:04:26.855Z,63.26
2023-04-27T01:06:53.792Z,63.60
2023-04-27T01:09:20.920Z,63.66
2023-04-27T01:11:49.814Z,63.75
2023-04-27T01:14:16.479Z,63.67
2023-04-27T01:16:44.293Z,63.84
2023-04-27T01:19:11.234Z,63.94
2023-04-27T01:21:38.359Z,63.88
2023-04-27T01:24:08.827Z,63.05
2023-04-27T01:26:37.673Z,63.79
2023-04-27T01:29:04.370Z,63.59
2023-04-27T01:31:31.234Z,63.60
2023-04-27T01:33:57.902Z,63.72
2023-04-27T01:36:24.616Z,63.91
2023-04-27T01:38:51.397Z,63.70
2023-04-27T01:41:18.049Z,63.78
2023-04-27T01:43:44.702Z,63.79
2023-04-27T01:46:13.921Z,63.72
2023-04-27T01:48:41.339Z,63.85
2023-04-27T01:51:08.011Z,63.87
2023-04-27T01:53:35.189Z,64.13
2023-04-27T01:56:01.922Z,64.06
2023-04-27T01:58:28.830Z,64.09
2023-04-27T02:00:55.479Z,64.17
2023-04-27T02:03:22.397Z,64.18
2023-04-27T02:05:50.426Z,63.38
2023-04-27T02:08:17.213Z,63.91
2023-04-27T02:10:44.915Z,63.90
2023-04-27T02:13:11.681Z,63.79
2023-04-27T02:15:38.290Z,63.77
2023-04-27T02:18:05.064Z,63.70
2023-04-27T02:20:32.974Z,63.94
2023-04-27T02:23:00.858Z,64.06
2023-04-27T02:25:27.577Z,64.00
2023-04-27T02:27:54.724Z,64.08
2023-04-27T02:30:21.903Z,64.35
2023-04-27T02:32:49.143Z,64.13
2023-04-27T02:35:15.816Z,64.07
2023-04-27T02:37:42.483Z,64.19
2023-04-27T02:40:09.588Z,64.25
2023-04-27T02:42:36.380Z,63.96
2023-04-27T02:45:03.195Z,63.89
2023-04-27T02:47:29.972Z,63.97
2023-04-27T02:49:56.776Z,63.99
2023-04-27T02:52:23.935Z,64.02
2023-04-27T02:54:50.554Z,64.08
2023-04-27T02:57:17.247Z,64.04
2023-04-27T02:59:44.032Z,63.80
2023-04-27T03:02:10.652Z,63.69
2023-04-27T03:04:37.392Z,63.42
2023-04-27T03:07:04.516Z,63.39
2023-04-27T03:09:31.090Z,63.10
2023-04-27T03:11:57.699Z,63.17
2023-04-27T03:14:24.292Z,63.11
2023-04-27T03:16:51.711Z,63.32
2023-04-27T03:19:18.316Z,63.12
2023-04-27T03:21:44.916Z,62.96
2023-04-27T03:24:11.522Z,63.05
2023-04-27T03:26:38.158Z,63.23
2023-04-27T03:29:04.836Z,63.48
2023-04-27T03:31:31.502Z,63.52
2023-04-27T03:33:58.498Z,63.61
2023-04-27T03:36:25.074Z,63.66
2023-04-27T03:38:51.617Z,63.78
2023-04-27T03:41:18.686Z,63.83
2023-04-27T03:43:45.267Z,64.30
2023-04-27T03:46:12.053Z,64.07
2023-04-27T03:48:38.685Z,64.37
2023-04-27T03:51:05.858Z,64.54
2023-04-27T03:53:32.928Z,64.74
2023-04-27T03:56:02.996Z,64.83
2023-04-27T03:58:29.840Z,65.23
2023-04-27T04:01:25.614Z,65.21
2023-04-27T04:03:52.400Z,65.34
2023-04-27T04:06:19.076Z,65.54
2023-04-27T04:08:45.951Z,65.57
2023-04-27T04:11:12.941Z,65.40
2023-04-27T04:13:39.643Z,65.26
2023-04-27T04:16:09.029Z,65.14
2023-04-27T04:18:36.683Z,65.42
2023-04-27T04:21:05.029Z,65.77
2023-04-27T04:23:31.948Z,66.09
2023-04-27T04:25:59.046Z,66.11
2023-04-27T04:28:30.326Z,66.17
2023-04-27T04:30:57.014Z,66.54
2023-04-27T04:33:23.975Z,66.69
2023-04-27T04:35:50.704Z,66.65
2023-04-27T04:38:18.428Z,66.64
2023-04-27T04:40:46.130Z,66.67
2023-04-27T04:43:12.900Z,66.53
2023-04-27T04:45:39.575Z,66.52
2023-04-27T04:48:06.396Z,66.38
2023-04-27T04:50:33.023Z,66.30
2023-04-27T04:52:59.788Z,66.29
2023-04-27T04:55:26.932Z,66.03
2023-04-27T04:57:54.054Z,66.33
2023-04-27T05:00:20.978Z,66.24
2023-04-27T05:02:47.727Z,66.41
2023-04-27T05:05:14.548Z,66.43
2023-04-27T05:07:41.540Z,66.45
2023-04-27T05:10:11.248Z,66.18
2023-04-27T05:12:44.344Z,65.42
2023-04-27T05:15:12.168Z,65.99
2023-04-27T05:17:39.081Z,66.17
2023-04-27T05:20:06.759Z,66.10
2023-04-27T05:22:33.318Z,66.16
2023-04-27T05:24:59.947Z,66.16
2023-04-27T05:27:26.597Z,66.28
2023-04-27T05:29:53.199Z,66.57
2023-04-27T05:32:19.750Z,66.36
2023-04-27T05:34:49.297Z,66.43
2023-04-27T05:37:16.251Z,66.32
2023-04-27T05:39:42.961Z,66.46
2023-04-27T05:42:09.606Z,66.60
2023-04-27T05:44:36.427Z,66.75
2023-04-27T05:47:03.038Z,67.29
2023-04-27T05:49:29.748Z,67.24
2023-04-27T05:51:56.371Z,67.39
2023-04-27T05:54:23.112Z,67.44
2023-04-27T05:56:49.852Z,67.66
2023-04-27T05:59:16.653Z,67.69
2023-04-27T06:01:43.750Z,67.09
2023-04-27T06:04:10.598Z,67.11
2023-04-27T06:06:37.241Z,67.26
2023-04-27T06:09:03.863Z,67.13
2023-04-27T06:11:30.590Z,66.99
2023-04-27T06:13:57.219Z,66.91
2023-04-27T06:16:24.037Z,66.86
2023-04-27T06:18:50.999Z,67.01
2023-04-27T06:21:18.061Z,66.97
2023-04-27T06:23:44.847Z,66.77
2023-04-27T06:26:11.621Z,66.91
2023-04-27T06:28:38.452Z,66.96
2023-04-27T06:31:05.649Z,66.69
2023-04-27T06:33:32.369Z,66.59
2023-04-27T06:36:00.434Z,66.24
2023-04-27T06:38:27.028Z,64.48
2023-04-27T06:40:53.574Z,66.50
2023-04-27T06:43:20.209Z,65.74
2023-04-27T06:45:46.930Z,65.83
2023-04-27T06:48:13.620Z,65.89
2023-04-27T06:50:40.206Z,65.49
2023-04-27T06:53:06.851Z,64.81
2023-04-27T06:55:33.402Z,64.71
2023-04-27T06:58:00.152Z,64.51
2023-04-27T07:00:27.173Z,64.81
2023-04-27T07:02:53.966Z,64.82
2023-04-27T07:05:20.735Z,64.22
2023-04-27T07:07:47.507Z,63.07
2023-04-27T07:10:14.341Z,62.28
2023-04-27T07:12:42.908Z,61.27
2023-04-27T07:15:10.395Z,61.26
2023-04-27T07:17:37.026Z,62.24
2023-04-27T07:20:05.118Z,62.00
2023-04-27T07:22:32.585Z,61.29
2023-04-27T07:24:59.146Z,61.37
2023-04-27T07:27:25.728Z,59.89
2023-04-27T07:29:52.602Z,60.77
2023-04-27T07:32:19.299Z,61.42
2023-04-27T07:34:53.641Z,61.65
2023-04-27T07:37:21.861Z,60.96
2023-04-27T07:39:51.942Z,57.58
2023-04-27T07:42:19.579Z,60.65
2023-04-27T07:44:46.289Z,61.27
2023-04-27T07:47:12.870Z,60.42
2023-04-27T07:49:39.495Z,60.21
2023-04-27T07:52:06.109Z,59.73
2023-04-27T07:54:32.665Z,60.26
2023-04-27T07:56:59.310Z,58.94
2023-04-27T07:59:29.395Z,54.48
2023-04-27T08:02:07.175Z,58.56
2023-04-27T08:04:43.107Z,59.00
2023-04-27T08:07:10.652Z,58.84
2023-04-27T08:09:37.574Z,57.96
2023-04-27T08:12:04.646Z,57.12
2023-04-27T08:14:31.210Z,56.91
2023-04-27T08:16:57.986Z,57.11
2023-04-27T08:19:24.777Z,57.06
2023-04-27T08:21:51.350Z,56.51
2023-04-27T08:24:17.982Z,56.83
2023-04-27T08:26:44.647Z,56.32
2023-04-27T08:29:23.687Z,56.41
2023-04-27T08:31:56.413Z,56.43
2023-04-27T08:34:23.605Z,56.59
2023-04-27T08:36:50.367Z,55.79
2023-04-27T08:39:17.383Z,56.03
2023-04-27T08:41:44.065Z,55.84
2023-04-27T08:44:10.800Z,55.44
2023-04-27T08:46:38.082Z,55.87
2023-04-27T08:49:05.051Z,55.89
2023-04-27T08:51:32.820Z,53.81
2023-04-27T08:53:59.779Z,54.98
2023-04-27T08:56:28.668Z,53.24
2023-04-27T08:58:56.973Z,54.34
2023-04-27T09:01:24.975Z,54.61
2023-04-27T09:03:59.989Z,53.50
2023-04-27T09:06:34.869Z,50.59
2023-04-27T09:09:03.095Z,52.43
2023-04-27T09:11:33.532Z,50.50
2023-04-27T09:14:03.093Z,53.14
2023-04-27T09:16:31.230Z,53.12
2023-04-27T09:18:58.818Z,53.46
2023-04-27T09:21:30.224Z,47.41
2023-04-27T09:23:57.473Z,53.58
2023-04-27T09:26:27.982Z,49.35
2023-04-27T09:28:56.085Z,52.99
2023-04-27T09:31:30.727Z,53.05
2023-04-27T09:33:57.375Z,52.27
2023-04-27T09:36:25.284Z,50.96
2023-04-27T09:38:52.896Z,51.45
2023-04-27T09:41:20.118Z,52.85
2023-04-27T09:43:47.168Z,53.33
2023-04-27T09:46:14.624Z,52.67
2023-04-27T09:48:42.539Z,52.48
2023-04-27T09:51:09.254Z,52.34
2023-04-27T09:53:54.121Z,48.22
2023-04-27T09:56:51.028Z,45.88
2023-04-27T09:59:39.094Z,47.25
2023-04-27T10:02:20.810Z,49.46
2023-04-27T10:05:10.846Z,42.33
2023-04-27T10:07:39.730Z,42.20
2023-04-27T10:10:06.717Z,43.32
2023-04-27T10:12:36.879Z,44.58
2023-04-27T10:15:15.471Z,42.46
2023-04-27T10:17:52.355Z,44.52
2023-04-27T10:20:29.800Z,41.68
2023-04-27T10:22:56.565Z,46.00
2023-04-27T10:25:28.908Z,43.62
2023-04-27T10:27:57.830Z,44.65
2023-04-27T10:30:27.122Z,44.43
2023-04-27T10:32:56.254Z,41.55
2023-04-27T10:35:33.568Z,41.52
2023-04-27T10:38:10.336Z,42.43
2023-04-27T10:40:38.313Z,42.45
2023-04-27T10:43:16.233Z,42.99
2023-04-27T10:45:46.207Z,41.50
2023-04-27T10:48:14.132Z,46.85
2023-04-27T10:50:41.442Z,47.31
2023-04-27T10:53:08.554Z,48.32
2023-04-27T10:55:36.291Z,47.98
2023-04-27T10:58:02.869Z,44.84
2023-04-27T11:00:35.302Z,44.20
2023-04-27T11:03:20.010Z,43.43
2023-04-27T11:05:47.910Z,45.14
2023-04-27T11:08:16.951Z,44.41
2023-04-27T11:10:45.576Z,42.66
2023-04-27T11:13:15.099Z,43.56
2023-04-27T11:15:49.573Z,40.97
2023-04-27T11:18:17.539Z,40.00
2023-04-27T11:20:47.834Z,39.79
2023-04-27T11:23:28.075Z,42.86
2023-04-27T11:25:55.753Z,40.04
2023-04-27T11:28:23.560Z,43.01
2023-04-27T11:30:59.699Z,41.00
2023-04-27T11:33:27.407Z,38.71
2023-04-27T11:35:54.597Z,41.68
2023-04-27T11:38:21.402Z,43.04
2023-04-27T11:40:58.898Z,43.10
2023-04-27T11:43:26.273Z,44.37
2023-04-27T11:45:52.980Z,43.34
2023-04-27T11:48:20.160Z,44.16
2023-04-27T11:50:47.639Z,44.82
2023-04-27T11:53:15.552Z,44.79
2023-04-27T11:55:43.445Z,44.75
2023-04-27T11:58:16.660Z,40.85
2023-04-27T12:00:43.618Z,44.73
2023-04-27T12:03:10.384Z,45.52
2023-04-27T12:05:47.848Z,42.54
2023-04-27T12:08:14.513Z,44.69
2023-04-27T12:10:41.140Z,43.96
2023-04-27T12:13:07.891Z,44.48
2023-04-27T12:15:34.509Z,42.48
2023-04-27T12:18:01.309Z,44.46
2023-04-27T12:20:28.074Z,44.57
2023-04-27T12:22:54.985Z,44.17
2023-04-27T12:25:21.708Z,44.48
2023-04-27T12:27:48.289Z,44.27
2023-04-27T12:30:15.255Z,43.86
2023-04-27T12:32:42.035Z,44.71
2023-04-27T12:35:09.855Z,44.52
2023-04-27T12:37:37.054Z,44.98
2023-04-27T12:40:03.935Z,44.39
2023-04-27T12:42:30.586Z,42.95
2023-04-27T12:44:57.244Z,42.67
2023-04-27T12:49:53.509Z,44.05
2023-04-27T12:52:20.154Z,42.00
2023-04-27T12:54:46.700Z,41.84
2023-04-27T12:57:13.358Z,42.02
2023-04-27T12:59:40.110Z,43.08
2023-04-27T13:02:06.836Z,43.74
2023-04-27T13:04:33.620Z,43.97
2023-04-27T13:07:00.421Z,43.06
2023-04-27T13:09:27.829Z,44.00
2023-04-27T13:11:54.635Z,43.71
2023-04-27T13:14:21.369Z,43.99
2023-04-27T13:16:48.393Z,43.88
2023-04-27T13:19:15.207Z,43.24
2023-04-27T13:21:41.861Z,44.00
2023-04-27T13:24:08.500Z,44.43
2023-04-27T13:26:35.127Z,45.09
2023-04-27T13:29:01.840Z,44.32
2023-04-27T13:31:28.461Z,43.98
2023-04-27T13:33:55.081Z,40.40
2023-04-27T13:36:21.724Z,40.75
2023-04-27T13:38:49.876Z,39.32
2023-04-27T13:41:19.211Z,40.15
2023-04-27T13:43:45.945Z,40.42
2023-04-27T13:46:12.596Z,39.68
2023-04-27T13:48:39.176Z,40.46
2023-04-27T13:51:05.865Z,41.51
2023-04-27T13:53:32.468Z,41.44
2023-04-27T13:55:59.050Z,41.96
2023-04-27T13:58:27.771Z,40.88
2023-04-27T14:00:55.381Z,38.88
2023-04-27T14:03:22.233Z,40.83
2023-04-27T14:05:49.212Z,41.65
2023-04-27T14:08:15.876Z,41.87
2023-04-27T14:10:42.737Z,42.64
2023-04-27T14:13:09.372Z,43.38
2023-04-27T14:15:36.158Z,44.24
2023-04-27T14:18:07.155Z,41.80
2023-04-27T14:20:37.590Z,41.85
2023-04-27T14:23:06.659Z,44.03
2023-04-27T14:25:33.449Z,43.54
2023-04-27T14:28:05.039Z,41.42
2023-04-27T14:30:32.852Z,44.60
2023-04-27T14:32:59.754Z,45.40
2023-04-27T14:35:27.547Z,45.02
2023-04-27T14:37:54.254Z,44.40
2023-04-27T14:40:20.841Z,44.24
2023-04-27T14:42:47.493Z,44.36
2023-04-27T14:45:14.704Z,44.94
2023-04-27T14:47:41.388Z,44.43
2023-04-27T14:50:08.455Z,42.59
2023-04-27T14:52:35.150Z,44.12
2023-04-27T14:55:01.847Z,43.69
2023-04-27T14:57:28.433Z,43.90
2023-04-27T14:59:55.100Z,44.26
2023-04-27T15:02:21.865Z,42.98
2023-04-27T15:04:48.552Z,42.33
2023-04-27T15:07:15.313Z,40.65
2023-04-27T15:09:41.876Z,40.94
2023-04-27T15:12:10.276Z,40.25
2023-04-27T15:14:36.827Z,41.39
2023-04-27T15:17:03.442Z,40.03
2023-04-27T15:19:30.270Z,41.37
2023-04-27T15:21:56.854Z,38.98
2023-04-27T15:24:23.442Z,39.43
2023-04-27T15:26:50.125Z,40.16
2023-04-27T15:29:17.246Z,40.82
2023-04-27T15:31:43.963Z,39.85
2023-04-27T15:34:10.568Z,40.83
2023-04-27T15:36:37.255Z,39.48
2023-04-27T15:39:03.905Z,39.03
2023-04-27T15:41:30.465Z,39.65
2023-04-27T15:43:57.028Z,40.60
2023-04-27T15:46:23.634Z,39.81
2023-04-27T15:48:50.287Z,40.21
2023-04-27T15:51:16.880Z,39.05
2023-04-27T15:53:43.460Z,40.21
2023-04-27T15:56:10.142Z,40.32
2023-04-27T15:58:36.713Z,39.09
2023-04-27T16:01:03.380Z,39.59
2023-04-27T16:03:30.128Z,39.93
2023-04-27T16:05:56.769Z,39.75
2023-04-27T16:08:23.348Z,37.96
2023-04-27T16:10:50.017Z,37.78
2023-04-27T16:13:16.561Z,38.57
2023-04-27T16:15:43.188Z,38.94
2023-04-27T16:18:09.936Z,38.88
2023-04-27T16:20:36.786Z,38.87
2023-04-27T16:23:03.434Z,39.32
2023-04-27T16:25:30.052Z,39.15
2023-04-27T16:27:58.783Z,36.29
2023-04-27T16:30:25.492Z,38.31
2023-04-27T16:32:52.861Z,39.25
2023-04-27T16:35:19.533Z,39.32
2023-04-27T16:37:46.182Z,37.96
2023-04-27T16:40:12.979Z,38.46
2023-04-27T16:42:39.544Z,37.36
2023-04-27T16:45:09.072Z,37.90
2023-04-27T16:47:37.260Z,38.29
2023-04-27T16:50:04.263Z,39.04
2023-04-27T16:52:30.971Z,38.78
2023-04-27T16:54:57.641Z,39.28
2023-04-27T16:57:24.202Z,40.24
2023-04-27T16:59:50.823Z,40.48
2023-04-27T17:02:24.566Z,40.83
2023-04-27T17:04:53.180Z,41.97
2023-04-27T17:07:19.940Z,41.49
2023-04-27T17:09:46.604Z,41.30
2023-04-27T17:12:13.238Z,40.20
2023-04-27T17:14:39.945Z,39.45
2023-04-27T17:17:06.812Z,38.46
2023-04-27T17:19:33.481Z,37.92
2023-04-27T17:22:00.287Z,39.01
2023-04-27T17:24:27.185Z,39.20
2023-04-27T17:26:53.834Z,39.06
2023-04-27T17:29:20.491Z,39.83
2023-04-27T17:31:47.297Z,40.11
2023-04-27T17:34:13.971Z,40.62
2023-04-27T17:36:40.536Z,40.66
2023-04-27T17:39:07.104Z,40.83
2023-04-27T17:41:35.476Z,41.35
2023-04-27T17:44:03.454Z,41.10
2023-04-27T17:46:30.197Z,41.17
2023-04-27T17:48:57.218Z,40.96
2023-04-27T17:51:23.772Z,41.54
2023-04-27T17:53:50.324Z,41.67
2023-04-27T17:56:19.372Z,41.85
2023-04-27T17:58:49.180Z,42.16
2023-04-27T18:01:15.876Z,42.29
2023-04-27T18:03:42.596Z,42.89
2023-04-27T18:06:09.341Z,43.41
2023-04-27T18:08:35.906Z,43.45
2023-04-27T18:11:02.653Z,44.02
2023-04-27T18:13:29.271Z,44.21
2023-04-27T18:15:55.976Z,44.74
2023-04-27T18:18:25.266Z,44.96
2023-04-27T18:20:52.129Z,45.61
2023-04-27T18:23:18.741Z,45.67
2023-04-27T18:25:45.302Z,46.05
2023-04-27T18:28:12.283Z,46.10
2023-04-27T18:30:38.950Z,46.46
2023-04-27T18:33:05.748Z,46.62
2023-04-27T18:35:32.453Z,47.06
2023-04-27T18:37:59.117Z,47.17
2023-04-27T18:40:25.863Z,47.48
2023-04-27T18:42:53.181Z,47.68
2023-04-27T18:45:20.099Z,48.02
2023-04-27T18:47:46.997Z,48.34
2023-04-27T18:50:13.759Z,48.51
2023-04-27T18:52:40.331Z,48.61
2023-04-27T18:55:08.809Z,48.72
2023-04-27T18:57:35.400Z,49.17
2023-04-27T19:00:02.543Z,49.39
2023-04-27T19:02:29.211Z,49.58
2023-04-27T19:05:11.388Z,49.72
2023-04-27T19:07:40.120Z,49.97
2023-04-27T19:10:07.636Z,50.09
2023-04-27T19:12:34.280Z,50.17
2023-04-27T19:15:00.863Z,50.42
2023-04-27T19:17:27.824Z,50.41
2023-04-27T19:19:54.532Z,50.45
2023-04-27T19:22:21.206Z,50.76
2023-04-27T19:24:48.209Z,51.01
2023-04-27T19:27:14.901Z,51.24
2023-04-27T19:29:55.670Z,50.85
2023-04-27T19:32:23.789Z,51.59
2023-04-27T19:34:50.520Z,51.74
2023-04-27T19:37:17.544Z,51.92
2023-04-27T19:39:44.113Z,51.97
2023-04-27T19:42:10.860Z,52.16
2023-04-27T19:44:37.434Z,52.39
2023-04-27T19:47:04.027Z,52.41
2023-04-27T19:49:31.839Z,52.69
2023-04-27T19:51:59.409Z,52.87
2023-04-27T19:54:26.176Z,52.91
2023-04-27T19:56:52.928Z,53.11
2023-04-27T19:59:19.688Z,53.25
2023-04-27T20:01:46.651Z,53.50
2023-04-27T20:04:13.511Z,53.53
2023-04-27T20:06:40.703Z,53.74
2023-04-27T20:09:07.288Z,53.80
2023-04-27T20:11:33.850Z,54.03
2023-04-27T20:14:00.530Z,54.09
2023-04-27T20:16:27.104Z,54.16
2023-04-27T20:18:53.870Z,54.35
2023-04-27T20:21:20.510Z,54.38
2023-04-27T20:23:50.273Z,54.45
2023-04-27T20:26:16.918Z,54.70
2023-04-27T20:28:44.001Z,54.79
2023-04-27T20:31:10.745Z,54.87
2023-04-27T20:33:37.418Z,55.02
2023-04-27T20:36:14.047Z,55.14
2023-04-27T20:38:43.804Z,55.25
2023-04-27T20:41:10.540Z,55.30
2023-04-27T20:43:37.091Z,55.37
2023-04-27T20:46:04.047Z,55.42
2023-04-27T20:48:30.652Z,55.66
2023-04-27T20:50:57.301Z,55.75
2023-04-27T20:53:23.892Z,55.76
2023-04-27T20:55:50.618Z,56.01
2023-04-27T20:58:17.177Z,56.11
2023-04-27T21:00:43.897Z,56.25
2023-04-27T21:03:11.178Z,56.36
2023-04-27T21:05:38.003Z,56.35
2023-04-27T21:08:04.544Z,56.51
2023-04-27T21:10:31.270Z,56.52
2023-04-27T21:12:57.832Z,56.58
2023-04-27T21:15:24.587Z,56.77
2023-04-27T21:17:51.510Z,56.86
2023-04-27T21:20:18.256Z,56.86
2023-04-27T21:22:44.951Z,56.90
2023-04-27T21:25:11.589Z,56.96
2023-04-27T21:27:38.139Z,57.09
2023-04-27T21:30:05.586Z,57.02
2023-04-27T21:32:32.326Z,57.22
2023-04-27T21:34:58.954Z,57.22
2023-04-27T21:37:25.750Z,57.27
2023-04-27T21:39:52.369Z,57.26
2023-04-27T21:42:18.924Z,57.43
2023-04-27T21:44:45.607Z,57.44
2023-04-27T21:47:12.203Z,57.47
2023-04-27T21:49:38.940Z,57.61
2023-04-27T21:52:05.540Z,57.77
2023-04-27T21:54:32.278Z,57.83
2023-04-27T21:56:58.943Z,57.97
2023-04-27T21:59:25.574Z,58.05
2023-04-27T22:01:52.360Z,57.91
2023-04-27T22:04:19.622Z,57.92
2023-04-27T22:06:46.527Z,58.05
2023-04-27T22:09:13.386Z,57.98
2023-04-27T22:14:44.337Z,58.14
2023-04-27T22:17:11.036Z,58.21
2023-04-27T22:19:37.669Z,58.39
2023-04-27T22:22:04.387Z,58.49
2023-04-27T22:24:31.112Z,58.53
2023-04-27T22:26:57.794Z,58.46
2023-04-27T22:29:24.388Z,58.63
2023-04-27T22:31:51.450Z,58.68
2023-04-27T22:34:18.332Z,58.71
2023-04-27T22:36:45.381Z,58.88
2023-04-27T22:39:12.153Z,58.82
2023-04-27T22:41:38.933Z,58.89
2023-04-27T22:44:05.510Z,58.94
2023-04-27T22:46:32.149Z,59.00
2023-04-27T22:48:58.862Z,58.99
2023-04-27T22:51:25.445Z,59.07
2023-04-27T22:53:52.153Z,59.15
2023-04-27T22:56:19.200Z,59.11
2023-04-27T22:58:45.811Z,59.11
2023-04-27T23:01:12.884Z,59.23
2023-04-27T23:03:39.534Z,59.20
2023-04-27T23:06:06.419Z,59.38
2023-04-27T23:08:33.142Z,59.43
2023-04-27T23:10:59.803Z,59.32
2023-04-27T23:13:26.449Z,59.34
2023-04-27T23:15:53.872Z,59.29
2023-04-27T23:18:21.208Z,59.37
2023-04-27T23:20:52.730Z,59.10
2023-04-27T23:23:19.443Z,59.38
2023-04-27T23:25:46.223Z,59.44
2023-04-27T23:28:12.800Z,59.54
2023-04-27T23:30:39.556Z,59.54
2023-04-27T23:33:06.237Z,59.57
2023-04-27T23:35:32.932Z,59.52
2023-04-27T23:37:59.712Z,59.64
2023-04-27T23:40:26.278Z,59.65
2023-04-27T23:42:52.831Z,59.56
2023-04-27T23:45:19.434Z,59.65
2023-04-27T23:47:46.082Z,59.58
2023-04-27T23:50:12.783Z,59.63
2023-04-27T23:52:39.345Z,59.64
2023-04-27T23:55:06.596Z,59.63
2023-04-27T23:57:33.199Z,59.75
